Skip Navigation LinksHome page > Weather > Current weather Skip Navigation Links

Current Weather

Eureka, Nunavut

For information only: do not use for flight planning or navigation.
Latest weather
Observation time Monday, December 5, 2016 2:00 AM CST
Local time Monday, December 5, 2016 2:26 AM CST
Flight conditions Visual Meteorological Conditions
Winds
Wind direction West (280°)
Winds variable from 260° to 350°
Wind speed 10 mph
Wind gusting to 18 mph
Visibility 15 mi.
Present weather ice crystals
Sky condition
Ceiling unlimited
Sky clear
Temperature -18°F
Dewpoint -26°F
Altimeter 30.32 in.Hg
Derived measurements
Relative humidity 68%
Wind chill -39°F
Density altitude -6041 ft.
Sea-level pressure 30.32 in.Hg
METAR CWEU 050800Z 28009G16KT 260V350 15SM IC SKC M28/M32 A3032 RMK SLP269

Settings

Location code

InnerDrive.Weather 4.0.6144.1 Release CLR 4.0.30319.34209
Copyright ©2015 Inner Drive Technology. All rights reserved. Portions Copyright ©1986-2015 David Braverman.

Find weather

Site navigation


Skip Navigation Links

Place info

Page info

PayPal - The safer, easier way to pay online!

Return home.

Copyright ©2016 Inner Drive Technology. Purveyors of fine, hand-crafted computer software. Page printed 2016-12-05T08:26:29 UTC.